Disclaimer

Please do not use the information listed here in-flight or in-navigation, as they are not provided to us by the airports but are provided by volunteers, so they might be outdated.

Search


Regions


Airport information page

No radio frequency information is available.

Airport informations:
Latitude: 23° 50' 43.10" S
Longitude: 029° 27' 31.00" E
Elevation: 4076 feet - 1242 meters
Operating hours: Remarks
Operating agency: Civil government, landing fees and diplomatic clearance may be required
Timezone: UTC+2
Fuel: Jet A1, without icing nhibitor.

100/130 MIL Spec, low lead, aviation gasoline (BLUE)

Runway information:
01/19 - 8400 x 148 feet< - >2560 x 45 meters
05/23 - 7612 x 148 feet< - >2320 x 45 meters

Recent METARs:
FAPP 130300Z 00000KT CAVOK 14/09 Q1023 NOSIG
FAPP 130300Z 00000KT CAVOK 14/09 Q1023 NOSIG
FAPP 130400Z 01002KT CAVOK 15/09 Q1023 NOSIG

Airport on the map: